sensor_id;sensor_type;location;lat;lon;timestamp;pressure;altitude;pressure_sealevel;temperature;humidity
48527;BME280;34317;51.660;5.824;2023-01-30T00:01:26;101762.97;;;8.33;58.57
48527;BME280;34317;51.660;5.824;2023-01-30T00:03:53;101740.06;;;8.35;58.18
48527;BME280;34317;51.660;5.824;2023-01-30T00:06:21;101734.72;;;8.38;58.38
48527;BME280;34317;51.660;5.824;2023-01-30T00:08:48;101734.66;;;8.42;58.59
48527;BME280;34317;51.660;5.824;2023-01-30T00:11:16;101732.84;;;8.44;58.60
48527;BME280;34317;51.660;5.824;2023-01-30T00:13:47;101729.34;;;8.45;58.62
48527;BME280;34317;51.660;5.824;2023-01-30T00:16:14;101734.56;;;8.48;58.86
48527;BME280;34317;51.660;5.824;2023-01-30T00:18:42;101720.44;;;8.49;58.59
48527;BME280;34317;51.660;5.824;2023-01-30T00:21:11;101727.47;;;8.50;58.63
48527;BME280;34317;51.660;5.824;2023-01-30T00:23:39;101715.09;;;8.52;58.93
48527;BME280;34317;51.660;5.824;2023-01-30T00:26:07;101728.28;;;8.53;58.62
48527;BME280;34317;51.660;5.824;2023-01-30T00:28:37;101727.31;;;8.56;58.86
48527;BME280;34317;51.660;5.824;2023-01-30T00:31:06;101731.66;;;8.58;58.80
48527;BME280;34317;51.660;5.824;2023-01-30T00:33:35;101720.19;;;8.61;59.03
48527;BME280;34317;51.660;5.824;2023-01-30T00:36:02;101713.06;;;8.65;58.85
48527;BME280;34317;51.660;5.824;2023-01-30T00:38:30;101710.34;;;8.66;59.21
48527;BME280;34317;51.660;5.824;2023-01-30T00:40:57;101702.38;;;8.69;59.12
48527;BME280;34317;51.660;5.824;2023-01-30T00:43:24;101702.31;;;8.72;59.05
48527;BME280;34317;51.660;5.824;2023-01-30T00:46:22;101700.50;;;8.74;58.98
48527;BME280;34317;51.660;5.824;2023-01-30T00:49:08;101707.44;;;8.79;58.92
48527;BME280;34317;51.660;5.824;2023-01-30T00:51:35;101700.34;;;8.81;59.01
48527;BME280;34317;51.660;5.824;2023-01-30T00:54:02;101695.00;;;8.84;58.88
48527;BME280;34317;51.660;5.824;2023-01-30T00:56:30;101705.47;;;8.87;58.91
48527;BME280;34317;51.660;5.824;2023-01-30T00:58:58;101696.56;;;8.91;59.22
48527;BME280;34317;51.660;5.824;2023-01-30T01:01:25;101680.66;;;8.94;59.34
48527;BME280;34317;51.660;5.824;2023-01-30T01:03:52;101690.25;;;8.96;59.03
48527;BME280;34317;51.660;5.824;2023-01-30T01:06:19;101689.34;;;8.99;59.54
48527;BME280;34317;51.660;5.824;2023-01-30T01:08:46;101678.66;;;9.02;59.27
48527;BME280;34317;51.660;5.824;2023-01-30T01:11:14;101693.59;;;9.05;59.42
48527;BME280;34317;51.660;5.824;2023-01-30T01:14:00;101678.53;;;9.08;59.29
48527;BME280;34317;51.660;5.824;2023-01-30T01:16:29;101669.63;;;9.12;59.39
48527;BME280;34317;51.660;5.824;2023-01-30T01:18:58;101664.25;;;9.15;59.48
48527;BME280;34317;51.660;5.824;2023-01-30T01:21:25;101669.44;;;9.19;59.41
48527;BME280;34317;51.660;5.824;2023-01-30T01:23:57;101674.66;;;9.22;59.50
48527;BME280;34317;51.660;5.824;2023-01-30T01:26:26;101674.56;;;9.25;59.31
48527;BME280;34317;51.660;5.824;2023-01-30T01:28:57;101662.22;;;9.27;59.47
48527;BME280;34317;51.660;5.824;2023-01-30T01:31:25;101661.25;;;9.29;59.58
48527;BME280;34317;51.660;5.824;2023-01-30T01:33:54;101655.00;;;9.32;59.58
48527;BME280;34317;51.660;5.824;2023-01-30T01:36:21;101662.91;;;9.33;59.52
48527;BME280;34317;51.660;5.824;2023-01-30T01:39:08;101658.41;;;9.37;59.60
48527;BME280;34317;51.660;5.824;2023-01-30T01:41:36;101657.44;;;9.40;59.53
48527;BME280;34317;51.660;5.824;2023-01-30T01:44:08;101664.47;;;9.41;59.42
48527;BME280;34317;51.660;5.824;2023-01-30T01:46:53;101653.81;;;9.44;59.35
48527;BME280;34317;51.660;5.824;2023-01-30T01:49:28;101637.06;;;9.43;59.61
48527;BME280;34317;51.660;5.824;2023-01-30T01:52:00;101631.72;;;9.46;59.38
48527;BME280;34317;51.660;5.824;2023-01-30T01:54:43;101629.88;;;9.48;59.39
48527;BME280;34317;51.660;5.824;2023-01-30T01:57:20;101622.78;;;9.50;59.36
48527;BME280;34317;51.660;5.824;2023-01-30T01:59:52;101602.44;;;9.52;59.46
48527;BME280;34317;51.660;5.824;2023-01-30T02:02:22;101615.59;;;9.55;59.63
48527;BME280;34317;51.660;5.824;2023-01-30T02:04:54;101594.44;;;9.55;59.63
48527;BME280;34317;51.660;5.824;2023-01-30T02:10:10;101602.22;;;9.60;59.68
48527;BME280;34317;51.660;5.824;2023-01-30T02:12:39;101595.09;;;9.62;59.42
48527;BME280;34317;51.660;5.824;2023-01-30T02:15:08;101597.72;;;9.64;59.29
48527;BME280;34317;51.660;5.824;2023-01-30T02:17:35;101597.66;;;9.65;59.62
48527;BME280;34317;51.660;5.824;2023-01-30T02:20:12;101597.63;;;9.67;59.71
48527;BME280;34317;51.660;5.824;2023-01-30T02:23:13;101588.78;;;9.68;59.65
48527;BME280;34317;51.660;5.824;2023-01-30T02:31:49;101579.94;;;9.69;59.54
48527;BME280;34317;51.660;5.824;2023-01-30T02:37:43;101573.69;;;9.71;59.91
48527;BME280;34317;51.660;5.824;2023-01-30T02:43:05;101551.66;;;9.71;59.59
48527;BME280;34317;51.660;5.824;2023-01-30T02:48:23;101559.56;;;9.72;59.79
48527;BME280;34317;51.660;5.824;2023-01-30T02:51:03;101560.41;;;9.73;59.91
48527;BME280;34317;51.660;5.824;2023-01-30T02:53:32;101555.03;;;9.76;60.08
48527;BME280;34317;51.660;5.824;2023-01-30T02:56:00;101552.34;;;9.78;59.80
48527;BME280;34317;51.660;5.824;2023-01-30T02:58:31;101547.94;;;9.78;60.18
48527;BME280;34317;51.660;5.824;2023-01-30T03:01:21;101539.06;;;9.79;60.19
48527;BME280;34317;51.660;5.824;2023-01-30T03:04:23;101531.09;;;9.81;60.19
48527;BME280;34317;51.660;5.824;2023-01-30T03:09:57;101535.50;;;9.80;60.07
48527;BME280;34317;51.660;5.824;2023-01-30T03:15:16;101533.75;;;9.79;60.16
48527;BME280;34317;51.660;5.824;2023-01-30T03:17:47;101517.91;;;9.79;60.20
48527;BME280;34317;51.660;5.824;2023-01-30T03:20:18;101523.19;;;9.79;60.32
48527;BME280;34317;51.660;5.824;2023-01-30T03:22:45;101526.75;;;9.78;60.35
48527;BME280;34317;51.660;5.824;2023-01-30T03:25:17;101516.22;;;9.77;60.60
48527;BME280;34317;51.660;5.824;2023-01-30T03:27:45;101519.72;;;9.77;60.67
48527;BME280;34317;51.660;5.824;2023-01-30T03:30:13;101521.47;;;9.78;60.67
48527;BME280;34317;51.660;5.824;2023-01-30T03:32:41;101517.91;;;9.79;60.71
48527;BME280;34317;51.660;5.824;2023-01-30T03:35:08;101521.47;;;9.78;60.81
48527;BME280;34317;51.660;5.824;2023-01-30T03:37:35;101516.19;;;9.78;60.74
48527;BME280;34317;51.660;5.824;2023-01-30T03:40:03;101500.34;;;9.77;60.96
48527;BME280;34317;51.660;5.824;2023-01-30T03:42:31;101502.13;;;9.76;61.19
48527;BME280;34317;51.660;5.824;2023-01-30T03:44:58;101500.38;;;9.75;60.81
48527;BME280;34317;51.660;5.824;2023-01-30T03:47:25;101498.69;;;9.74;60.96
48527;BME280;34317;51.660;5.824;2023-01-30T03:49:54;101500.38;;;9.75;61.20
48527;BME280;34317;51.660;5.824;2023-01-30T03:52:21;101500.38;;;9.75;61.35
48527;BME280;34317;51.660;5.824;2023-01-30T03:54:48;101490.75;;;9.74;61.32
48527;BME280;34317;51.660;5.824;2023-01-30T03:57:15;101494.25;;;9.74;61.22
48527;BME280;34317;51.660;5.824;2023-01-30T03:59:43;101492.47;;;9.75;61.19
48527;BME280;34317;51.660;5.824;2023-01-30T04:02:13;101494.25;;;9.74;61.08
48527;BME280;34317;51.660;5.824;2023-01-30T04:04:43;101497.75;;;9.75;61.29
48527;BME280;34317;51.660;5.824;2023-01-30T04:07:10;101499.53;;;9.74;61.42
48527;BME280;34317;51.660;5.824;2023-01-30T04:09:39;101505.69;;;9.75;61.34
48527;BME280;34317;51.660;5.824;2023-01-30T04:12:06;101505.69;;;9.75;61.49
48527;BME280;34317;51.660;5.824;2023-01-30T04:14:39;101496.88;;;9.74;61.66
48527;BME280;34317;51.660;5.824;2023-01-30T04:17:39;101503.97;;;9.74;61.84
48527;BME280;34317;51.660;5.824;2023-01-30T04:20:37;101497.75;;;9.75;61.62
48527;BME280;34317;51.660;5.824;2023-01-30T04:23:05;101503.03;;;9.75;61.47
48527;BME280;34317;51.660;5.824;2023-01-30T04:25:32;101491.56;;;9.76;61.84
48527;BME280;34317;51.660;5.824;2023-01-30T04:27:59;101487.94;;;9.79;61.72
48527;BME280;34317;51.660;5.824;2023-01-30T04:30:31;101493.19;;;9.80;61.76
48527;BME280;34317;51.660;5.824;2023-01-30T04:33:25;101486.06;;;9.82;62.06
48527;BME280;34317;51.660;5.824;2023-01-30T04:35:57;101482.53;;;9.83;62.24
48527;BME280;34317;51.660;5.824;2023-01-30T04:38:26;101480.69;;;9.85;61.99
48527;BME280;34317;51.660;5.824;2023-01-30T04:40:55;101490.28;;;9.88;62.16
48527;BME280;34317;51.660;5.824;2023-01-30T04:43:26;101498.19;;;9.89;62.15
48527;BME280;34317;51.660;5.824;2023-01-30T04:46:15;101491.06;;;9.91;62.19
48527;BME280;34317;51.660;5.824;2023-01-30T04:48:42;101488.25;;;9.96;62.07
48527;BME280;34317;51.660;5.824;2023-01-30T04:51:09;101487.31;;;9.99;62.35
48527;BME280;34317;51.660;5.824;2023-01-30T04:53:37;101511.94;;;10.01;62.37
48527;BME280;34317;51.660;5.824;2023-01-30T04:56:05;101497.69;;;10.05;62.51
48527;BME280;34317;51.660;5.824;2023-01-30T04:58:33;101490.47;;;10.10;62.32
48527;BME280;34317;51.660;5.824;2023-01-30T05:01:21;101492.16;;;10.12;62.67
48527;BME280;34317;51.660;5.824;2023-01-30T05:03:50;101503.50;;;10.16;62.68
48527;BME280;34317;51.660;5.824;2023-01-30T05:06:18;101502.47;;;10.20;62.41
48527;BME280;34317;51.660;5.824;2023-01-30T05:08:54;101502.41;;;10.23;62.68
48527;BME280;34317;51.660;5.824;2023-01-30T05:11:23;101495.16;;;10.28;62.49
48527;BME280;34317;51.660;5.824;2023-01-30T05:13:50;101487.13;;;10.31;62.54
48527;BME280;34317;51.660;5.824;2023-01-30T05:16:19;101485.31;;;10.33;62.39
48527;BME280;34317;51.660;5.824;2023-01-30T05:18:48;101477.28;;;10.37;62.47
48527;BME280;34317;51.660;5.824;2023-01-30T05:21:21;101478.88;;;10.41;62.72
48527;BME280;34317;51.660;5.824;2023-01-30T05:23:49;101491.09;;;10.45;62.68
48527;BME280;34317;51.660;5.824;2023-01-30T05:26:16;101486.63;;;10.47;62.35
48527;BME280;34317;51.660;5.824;2023-01-30T05:28:49;101487.44;;;10.49;62.67
48527;BME280;34317;51.660;5.824;2023-01-30T05:31:17;101478.47;;;10.53;62.63
48527;BME280;34317;51.660;5.824;2023-01-30T05:33:46;101480.19;;;10.54;62.67
48527;BME280;34317;51.660;5.824;2023-01-30T05:36:16;101500.41;;;10.57;62.31
48527;BME280;34317;51.660;5.824;2023-01-30T05:38:44;101487.09;;;10.58;62.50
48527;BME280;34317;51.660;5.824;2023-01-30T05:41:12;101485.28;;;10.60;62.38
48527;BME280;34317;51.660;5.824;2023-01-30T05:43:40;101491.47;;;10.61;62.71
48527;BME280;34317;51.660;5.824;2023-01-30T05:46:09;101497.53;;;10.64;62.25
48527;BME280;34317;51.660;5.824;2023-01-30T05:48:37;101487.81;;;10.63;62.19
48527;BME280;34317;51.660;5.824;2023-01-30T05:51:04;101495.78;;;10.63;61.93
48527;BME280;34317;51.660;5.824;2023-01-30T05:53:32;101502.81;;;10.64;62.30
48527;BME280;34317;51.660;5.824;2023-01-30T05:56:04;101501.06;;;10.63;62.04
48527;BME280;34317;51.660;5.824;2023-01-30T05:58:32;101490.47;;;10.63;62.11
48527;BME280;34317;51.660;5.824;2023-01-30T06:01:01;101501.97;;;10.62;61.91
48527;BME280;34317;51.660;5.824;2023-01-30T06:03:28;101510.81;;;10.63;61.74
48527;BME280;34317;51.660;5.824;2023-01-30T06:05:56;101521.34;;;10.64;61.95
48527;BME280;34317;51.660;5.824;2023-01-30T06:08:23;101502.81;;;10.64;61.81
48527;BME280;34317;51.660;5.824;2023-01-30T06:10:50;101513.41;;;10.64;61.74
48527;BME280;34317;51.660;5.824;2023-01-30T06:13:17;101510.75;;;10.64;61.74
48527;BME280;34317;51.660;5.824;2023-01-30T06:15:44;101505.38;;;10.66;61.88
48527;BME280;34317;51.660;5.824;2023-01-30T06:18:12;101511.56;;;10.66;61.67
48527;BME280;34317;51.660;5.824;2023-01-30T06:20:39;101517.72;;;10.67;61.76
48527;BME280;34317;51.660;5.824;2023-01-30T06:23:06;101516.88;;;10.66;61.52
48527;BME280;34317;51.660;5.824;2023-01-30T06:25:33;101529.19;;;10.67;61.36
48527;BME280;34317;51.660;5.824;2023-01-30T06:28:00;101532.75;;;10.66;61.18
48527;BME280;34317;51.660;5.824;2023-01-30T06:30:30;101529.19;;;10.67;61.39
48527;BME280;34317;51.660;5.824;2023-01-30T06:32:57;101541.63;;;10.65;61.27
48527;BME280;34317;51.660;5.824;2023-01-30T06:35:24;101551.34;;;10.65;61.28
48527;BME280;34317;51.660;5.824;2023-01-30T06:37:51;101553.16;;;10.64;61.13
48527;BME280;34317;51.660;5.824;2023-01-30T06:40:18;101559.34;;;10.63;61.23
48527;BME280;34317;51.660;5.824;2023-01-30T06:42:46;101562.91;;;10.62;61.10
48527;BME280;34317;51.660;5.824;2023-01-30T06:45:16;101560.31;;;10.61;60.93
48527;BME280;34317;51.660;5.824;2023-01-30T06:47:51;101555.97;;;10.58;60.95
48527;BME280;34317;51.660;5.824;2023-01-30T06:50:21;101547.22;;;10.56;60.81
48527;BME280;34317;51.660;5.824;2023-01-30T06:52:50;101553.50;;;10.54;60.79
48527;BME280;34317;51.660;5.824;2023-01-30T06:55:19;101556.19;;;10.52;60.35
48527;BME280;34317;51.660;5.824;2023-01-30T06:57:47;101554.56;;;10.48;60.51
48527;BME280;34317;51.660;5.824;2023-01-30T07:00:19;101544.06;;;10.45;60.39
48527;BME280;34317;51.660;5.824;2023-01-30T07:02:46;101536.28;;;10.40;60.21
48527;BME280;34317;51.660;5.824;2023-01-30T07:05:13;101545.19;;;10.38;60.33
48527;BME280;34317;51.660;5.824;2023-01-30T07:07:40;101548.81;;;10.35;60.10
48527;BME280;34317;51.660;5.824;2023-01-30T07:10:09;101550.63;;;10.33;59.93
48527;BME280;34317;51.660;5.824;2023-01-30T07:12:38;101549.84;;;10.29;59.72
48527;BME280;34317;51.660;5.824;2023-01-30T07:15:05;101544.63;;;10.26;59.71
48527;BME280;34317;51.660;5.824;2023-01-30T07:17:33;101554.47;;;10.23;59.79
48527;BME280;34317;51.660;5.824;2023-01-30T07:20:03;101549.28;;;10.20;59.57
48527;BME280;34317;51.660;5.824;2023-01-30T07:22:30;101556.44;;;10.16;59.44
48527;BME280;34317;51.660;5.824;2023-01-30T07:24:57;101559.19;;;10.13;59.43
48527;BME280;34317;51.660;5.824;2023-01-30T07:27:24;101558.41;;;10.09;59.57
48527;BME280;34317;51.660;5.824;2023-01-30T07:29:51;101556.72;;;10.07;59.44
48527;BME280;34317;51.660;5.824;2023-01-30T07:32:19;101559.47;;;10.04;59.41
48527;BME280;34317;51.660;5.824;2023-01-30T07:34:46;101576.31;;;10.01;59.39
48527;BME280;34317;51.660;5.824;2023-01-30T07:37:13;101576.34;;;10.00;59.51
48527;BME280;34317;51.660;5.824;2023-01-30T07:39:41;101586.13;;;9.98;59.39
48527;BME280;34317;51.660;5.824;2023-01-30T07:42:08;101582.66;;;9.96;59.61
48527;BME280;34317;51.660;5.824;2023-01-30T07:44:35;101584.50;;;9.93;59.57
48527;BME280;34317;51.660;5.824;2023-01-30T07:47:02;101577.44;;;9.92;59.59
48527;BME280;34317;51.660;5.824;2023-01-30T07:49:29;101586.31;;;9.91;59.36
48527;BME280;34317;51.660;5.824;2023-01-30T07:51:56;101586.31;;;9.91;59.41
48527;BME280;34317;51.660;5.824;2023-01-30T07:54:24;101580.22;;;9.89;59.37
48527;BME280;34317;51.660;5.824;2023-01-30T07:56:52;101593.44;;;9.89;59.52
48527;BME280;34317;51.660;5.824;2023-01-30T07:59:19;101602.28;;;9.88;59.47
48527;BME280;34317;51.660;5.824;2023-01-30T08:01:46;101604.09;;;9.86;59.32
48527;BME280;34317;51.660;5.824;2023-01-30T08:04:13;101600.56;;;9.87;59.48
48527;BME280;34317;51.660;5.824;2023-01-30T08:06:40;101599.66;;;9.87;59.27
48527;BME280;34317;51.660;5.824;2023-01-30T08:09:08;101597.97;;;9.86;59.01
48527;BME280;34317;51.660;5.824;2023-01-30T08:11:35;101600.66;;;9.84;59.18
48527;BME280;34317;51.660;5.824;2023-01-30T08:14:02;101616.50;;;9.84;59.31
48527;BME280;34317;51.660;5.824;2023-01-30T08:16:29;101606.88;;;9.83;59.17
48527;BME280;34317;51.660;5.824;2023-01-30T08:18:58;101605.94;;;9.84;59.15
48527;BME280;34317;51.660;5.824;2023-01-30T08:21:25;101607.75;;;9.82;59.14
48527;BME280;34317;51.660;5.824;2023-01-30T08:23:52;101613.06;;;9.82;59.31
48527;BME280;34317;51.660;5.824;2023-01-30T08:26:19;101620.09;;;9.83;59.12
48527;BME280;34317;51.660;5.824;2023-01-30T08:28:47;101613.91;;;9.83;59.06
48527;BME280;34317;51.660;5.824;2023-01-30T08:31:15;101614.81;;;9.83;59.01
48527;BME280;34317;51.660;5.824;2023-01-30T08:33:42;101609.50;;;9.83;59.06
48527;BME280;34317;51.660;5.824;2023-01-30T08:36:10;101615.66;;;9.84;58.85
48527;BME280;34317;51.660;5.824;2023-01-30T08:38:37;101619.19;;;9.83;58.71
48527;BME280;34317;51.660;5.824;2023-01-30T08:41:05;101631.53;;;9.84;58.85
48527;BME280;34317;51.660;5.824;2023-01-30T08:43:34;101628.84;;;9.85;58.90
48527;BME280;34317;51.660;5.824;2023-01-30T08:46:02;101627.03;;;9.87;58.82
48527;BME280;34317;51.660;5.824;2023-01-30T08:48:29;101634.03;;;9.88;58.66
48527;BME280;34317;51.660;5.824;2023-01-30T08:51:14;101641.06;;;9.89;58.56
48527;BME280;34317;51.660;5.824;2023-01-30T08:53:41;101639.25;;;9.91;58.78
48527;BME280;34317;51.660;5.824;2023-01-30T08:56:08;101642.72;;;9.93;58.45
48527;BME280;34317;51.660;5.824;2023-01-30T08:58:36;101654.97;;;9.96;58.48
48527;BME280;34317;51.660;5.824;2023-01-30T09:01:06;101658.50;;;9.97;58.48
48527;BME280;34317;51.660;5.824;2023-01-30T09:03:34;101658.41;;;10.00;58.42
48527;BME280;34317;51.660;5.824;2023-01-30T09:06:01;101660.16;;;10.01;58.19
48527;BME280;34317;51.660;5.824;2023-01-30T09:08:28;101652.16;;;10.02;58.11
48527;BME280;34317;51.660;5.824;2023-01-30T09:11:00;101661.78;;;10.05;57.99
48527;BME280;34317;51.660;5.824;2023-01-30T09:13:27;101656.41;;;10.08;58.08
48527;BME280;34317;51.660;5.824;2023-01-30T09:15:56;101665.16;;;10.10;57.98
48527;BME280;34317;51.660;5.824;2023-01-30T09:18:23;101668.63;;;10.12;58.14
48527;BME280;34317;51.660;5.824;2023-01-30T09:20:51;101673.81;;;10.15;57.89
48527;BME280;34317;51.660;5.824;2023-01-30T09:23:19;101677.31;;;10.17;57.90
48527;BME280;34317;51.660;5.824;2023-01-30T09:25:46;101677.19;;;10.20;57.98
48527;BME280;34317;51.660;5.824;2023-01-30T09:28:13;101683.28;;;10.24;57.76
48527;BME280;34317;51.660;5.824;2023-01-30T09:30:41;101680.50;;;10.28;57.84
48527;BME280;34317;51.660;5.824;2023-01-30T09:33:08;101671.47;;;10.36;57.80
48527;BME280;34317;51.660;5.824;2023-01-30T09:35:35;101682.72;;;10.44;57.79
48527;BME280;34317;51.660;5.824;2023-01-30T09:38:02;101701.06;;;10.50;57.92
48527;BME280;34317;51.660;5.824;2023-01-30T09:40:32;101694.59;;;10.59;57.50
48527;BME280;34317;51.660;5.824;2023-01-30T09:43:13;101684.75;;;10.62;57.62
48527;BME280;34317;51.660;5.824;2023-01-30T09:48:41;101695.06;;;10.71;57.42
48527;BME280;34317;51.660;5.824;2023-01-30T09:51:27;101695.84;;;10.75;57.14
48527;BME280;34317;51.660;5.824;2023-01-30T09:57:08;101698.22;;;10.83;57.26
48527;BME280;34317;51.660;5.824;2023-01-30T09:59:55;101689.28;;;10.87;56.89
48527;BME280;34317;51.660;5.824;2023-01-30T10:02:38;101692.75;;;10.89;56.90
48527;BME280;34317;51.660;5.824;2023-01-30T10:05:07;101699.69;;;10.93;56.87
48527;BME280;34317;51.660;5.824;2023-01-30T10:15:56;101722.31;;;11.03;56.62
48527;BME280;34317;51.660;5.824;2023-01-30T10:21:36;101715.16;;;11.05;56.49
48527;BME280;34317;51.660;5.824;2023-01-30T10:24:17;101709.78;;;11.08;56.41
48527;BME280;34317;51.660;5.824;2023-01-30T10:26:48;101709.69;;;11.12;55.91
48527;BME280;34317;51.660;5.824;2023-01-30T10:29:20;101719.31;;;11.14;56.28
48527;BME280;34317;51.660;5.824;2023-01-30T10:31:55;101714.78;;;11.18;56.17
48527;BME280;34317;51.660;5.824;2023-01-30T10:34:26;101704.09;;;11.21;56.44
48527;BME280;34317;51.660;5.824;2023-01-30T10:37:02;101727.72;;;11.27;56.27
48527;BME280;34317;51.660;5.824;2023-01-30T10:39:35;101723.25;;;11.29;56.49
48527;BME280;34317;51.660;5.824;2023-01-30T10:42:26;101720.50;;;11.32;56.21
48527;BME280;34317;51.660;5.824;2023-01-30T10:45:01;101734.63;;;11.33;55.70
48527;BME280;34317;51.660;5.824;2023-01-30T10:48:15;101741.72;;;11.32;55.82
48527;BME280;34317;51.660;5.824;2023-01-30T10:51:04;101744.38;;;11.32;55.75
48527;BME280;34317;51.660;5.824;2023-01-30T10:56:37;101730.16;;;11.33;55.82
48527;BME280;34317;51.660;5.824;2023-01-30T10:59:20;101735.47;;;11.33;55.64
48527;BME280;34317;51.660;5.824;2023-01-30T11:02:01;101733.75;;;11.32;55.52
48527;BME280;34317;51.660;5.824;2023-01-30T11:07:12;101731.78;;;11.37;55.50
48527;BME280;34317;51.660;5.824;2023-01-30T11:09:45;101733.41;;;11.41;55.44
48527;BME280;34317;51.660;5.824;2023-01-30T11:12:13;101721.84;;;11.44;55.42
48527;BME280;34317;51.660;5.824;2023-01-30T11:15:02;101739.47;;;11.45;55.26
48527;BME280;34317;51.660;5.824;2023-01-30T11:17:34;101723.50;;;11.46;55.44
48527;BME280;34317;51.660;5.824;2023-01-30T11:20:19;101717.31;;;11.47;55.22
48527;BME280;34317;51.660;5.824;2023-01-30T11:23:08;101722.63;;;11.47;55.10
48527;BME280;34317;51.660;5.824;2023-01-30T11:25:50;101741.13;;;11.49;55.23
48527;BME280;34317;51.660;5.824;2023-01-30T11:28:40;101741.88;;;11.53;55.03
48527;BME280;34317;51.660;5.824;2023-01-30T11:31:33;101740.06;;;11.55;54.89
48527;BME280;34317;51.660;5.824;2023-01-30T11:34:14;101738.22;;;11.57;55.05
48527;BME280;34317;51.660;5.824;2023-01-30T11:36:41;101741.69;;;11.59;55.07
48527;BME280;34317;51.660;5.824;2023-01-30T11:44:26;101736.25;;;11.62;54.78
48527;BME280;34317;51.660;5.824;2023-01-30T11:46:53;101737.13;;;11.62;54.76
48527;BME280;34317;51.660;5.824;2023-01-30T11:49:25;101732.69;;;11.63;54.66
48527;BME280;34317;51.660;5.824;2023-01-30T11:52:16;101732.69;;;11.63;54.72
48527;BME280;34317;51.660;5.824;2023-01-30T11:54:45;101739.72;;;11.64;54.42
48527;BME280;34317;51.660;5.824;2023-01-30T11:57:14;101736.06;;;11.68;54.64
48527;BME280;34317;51.660;5.824;2023-01-30T12:02:18;101737.44;;;11.78;54.62
48527;BME280;34317;51.660;5.824;2023-01-30T12:04:49;101739.19;;;11.79;54.34
48527;BME280;34317;51.660;5.824;2023-01-30T12:07:25;101744.50;;;11.79;54.24
48527;BME280;34317;51.660;5.824;2023-01-30T12:09:55;101749.69;;;11.82;54.41
48527;BME280;34317;51.660;5.824;2023-01-30T12:12:32;101744.28;;;11.85;54.30
48527;BME280;34317;51.660;5.824;2023-01-30T12:15:25;101745.19;;;11.84;54.15
48527;BME280;34317;51.660;5.824;2023-01-30T12:26:14;101739.78;;;11.87;54.31
48527;BME280;34317;51.660;5.824;2023-01-30T12:28:49;101756.44;;;11.93;54.38
48527;BME280;34317;51.660;5.824;2023-01-30T12:33:47;101742.75;;;12.03;54.07
48527;BME280;34317;51.660;5.824;2023-01-30T12:58:26;101785.09;;;12.08;53.65
48527;BME280;34317;51.660;5.824;2023-01-30T13:01:10;101786.00;;;12.07;53.72
48527;BME280;34317;51.660;5.824;2023-01-30T13:03:43;101778.97;;;12.06;53.53
48527;BME280;34317;51.660;5.824;2023-01-30T13:06:55;101775.50;;;12.04;53.47
48527;BME280;34317;51.660;5.824;2023-01-30T13:12:18;101785.38;;;12.00;53.29
48527;BME280;34317;51.660;5.824;2023-01-30T13:14:59;101788.06;;;11.99;53.36
48527;BME280;34317;51.660;5.824;2023-01-30T13:17:55;101811.16;;;11.97;53.33
48527;BME280;34317;51.660;5.824;2023-01-30T13:21:06;101813.00;;;11.95;53.12
48527;BME280;34317;51.660;5.824;2023-01-30T13:23:46;101811.25;;;11.94;53.19
48527;BME280;34317;51.660;5.824;2023-01-30T13:26:23;101809.41;;;11.96;52.97
48527;BME280;34317;51.660;5.824;2023-01-30T13:29:13;101818.19;;;11.98;53.15
48527;BME280;34317;51.660;5.824;2023-01-30T13:31:49;101822.59;;;11.99;53.15
48527;BME280;34317;51.660;5.824;2023-01-30T13:34:29;101819.03;;;12.00;53.03
48527;BME280;34317;51.660;5.824;2023-01-30T13:37:04;101816.38;;;12.00;52.71
48527;BME280;34317;51.660;5.824;2023-01-30T13:39:38;101825.25;;;11.99;52.82
48527;BME280;34317;51.660;5.824;2023-01-30T13:44:55;101821.69;;;12.00;52.82
48527;BME280;34317;51.660;5.824;2023-01-30T13:47:52;101823.50;;;11.98;52.68
48527;BME280;34317;51.660;5.824;2023-01-30T13:55:48;101842.16;;;11.96;52.59
48527;BME280;34317;51.660;5.824;2023-01-30T14:01:02;101865.28;;;11.93;52.45
48527;BME280;34317;51.660;5.824;2023-01-30T14:03:32;101871.59;;;11.88;52.43
48527;BME280;34317;51.660;5.824;2023-01-30T14:06:02;101882.22;;;11.88;52.61
48527;BME280;34317;51.660;5.824;2023-01-30T14:11:01;101878.84;;;11.83;52.43
48527;BME280;34317;51.660;5.824;2023-01-30T14:13:28;101891.38;;;11.78;52.32
48527;BME280;34317;51.660;5.824;2023-01-30T14:16:03;101882.59;;;11.76;52.41
48527;BME280;34317;51.660;5.824;2023-01-30T14:18:33;101900.38;;;11.74;52.51
48527;BME280;34317;51.660;5.824;2023-01-30T14:21:21;101904.03;;;11.70;52.48
48527;BME280;34317;51.660;5.824;2023-01-30T14:24:03;101905.88;;;11.68;52.43
48527;BME280;34317;51.660;5.824;2023-01-30T14:34:42;101913.13;;;11.63;52.74
48527;BME280;34317;51.660;5.824;2023-01-30T14:48:38;101946.31;;;11.76;52.84
48527;BME280;34317;51.660;5.824;2023-01-30T14:54:06;101948.13;;;11.74;52.57
48527;BME280;34317;51.660;5.824;2023-01-30T14:57:00;101944.66;;;11.72;52.56
48527;BME280;34317;51.660;5.824;2023-01-30T15:04:45;101955.50;;;11.66;52.52
48527;BME280;34317;51.660;5.824;2023-01-30T15:07:22;101972.31;;;11.65;52.86
48527;BME280;34317;51.660;5.824;2023-01-30T15:09:57;101967.91;;;11.64;52.60
48527;BME280;34317;51.660;5.824;2023-01-30T15:18:19;101991.16;;;11.56;52.72
48527;BME280;34317;51.660;5.824;2023-01-30T15:32:29;102010.94;;;11.45;52.64
48527;BME280;34317;51.660;5.824;2023-01-30T15:34:59;102008.28;;;11.45;52.78
48527;BME280;34317;51.660;5.824;2023-01-30T15:37:53;102030.41;;;11.44;52.83
48527;BME280;34317;51.660;5.824;2023-01-30T15:40:20;102028.69;;;11.43;52.68
48527;BME280;34317;51.660;5.824;2023-01-30T15:50:48;102046.53;;;11.38;52.87
48527;BME280;34317;51.660;5.824;2023-01-30T15:53:16;102048.34;;;11.36;52.74
48527;BME280;34317;51.660;5.824;2023-01-30T15:55:44;102056.34;;;11.35;52.81
48527;BME280;34317;51.660;5.824;2023-01-30T15:58:17;102062.63;;;11.32;52.84